Time;durP1;ratioP1;P1;durP2;ratioP2;P2;SDS_P1;SDS_P2;PMS_P1;PMS_P2;Temp;Humidity;BMP_temperature;BMP_pressure;BME280_temperature;BME280_humidity;BME280_pressure;Samples;Min_cycle;Max_cycle;Signal;HPM_P1;HPM_P2
2023/08/02 00:01:01;;;;;;;2.65;0.82;;;;;;;24.20;47.16;99974.91;5018281;28;20022;-68
2023/08/02 00:03:27;;;;;;;4.75;1.30;;;;;;;24.20;46.83;99968.63;5035182;28;20037;-68
2023/08/02 00:05:57;;;;;;;4.72;1.90;;;;;;;24.17;47.63;99961.72;5018535;28;20026;-67
2023/08/02 00:08:23;;;;;;;5.18;1.20;;;;;;;24.17;47.67;99952.69;5018220;28;20017;-67
2023/08/02 00:10:48;;;;;;;3.97;1.00;;;;;;;24.13;47.30;99957.78;5036220;28;20489;-67
2023/08/02 00:13:14;;;;;;;3.60;1.52;;;;;;;24.13;47.50;99965.16;5036600;28;20060;-68
2023/08/02 00:15:40;;;;;;;4.28;1.20;;;;;;;24.13;47.48;99974.22;5034721;28;20456;-68
2023/08/02 00:18:05;;;;;;;3.13;0.82;;;;;;;24.15;47.19;99976.69;5034497;28;20036;-67
2023/08/02 00:20:30;;;;;;;5.57;1.40;;;;;;;24.16;47.73;99962.78;5017985;28;20124;-69
2023/08/02 00:22:56;;;;;;;6.60;1.58;;;;;;;24.15;47.13;99944.69;5017685;28;20080;-67
2023/08/02 00:25:22;;;;;;;2.20;0.98;;;;;;;24.14;47.25;99936.75;5034351;28;20064;-68
2023/08/02 00:27:48;;;;;;;3.40;1.13;;;;;;;24.15;47.38;99932.91;5017813;28;20029;-67
2023/08/02 00:30:13;;;;;;;6.35;1.35;;;;;;;24.14;47.64;99931.25;5035531;28;20045;-69
2023/08/02 00:32:45;;;;;;;5.53;1.10;;;;;;;24.10;47.29;99909.00;5034068;28;20037;-67
2023/08/02 00:35:11;;;;;;;5.25;1.65;;;;;;;24.10;47.61;99902.69;5035503;28;20120;-68
2023/08/02 00:37:36;;;;;;;6.32;1.00;;;;;;;24.09;47.35;99909.22;5035296;28;20025;-68
2023/08/02 00:40:03;;;;;;;7.10;1.42;;;;;;;24.07;47.01;99905.88;5033931;28;20397;-68
2023/08/02 00:42:29;;;;;;;2.88;1.17;;;;;;;24.06;47.21;99902.34;5035136;28;20034;-67
2023/08/02 00:44:54;;;;;;;5.57;1.50;;;;;;;24.07;47.13;99897.66;5017387;28;20505;-68
2023/08/02 00:47:20;;;;;;;3.08;1.25;;;;;;;24.08;47.43;99900.19;5033845;28;20037;-68
2023/08/02 00:49:45;;;;;;;8.07;1.88;;;;;;;24.11;47.39;99901.63;5034002;28;20026;-67
2023/08/02 00:52:11;;;;;;;7.63;1.60;;;;;;;24.15;47.42;99894.59;5017468;28;20405;-62
2023/08/02 00:54:36;;;;;;;3.80;1.05;;;;;;;24.15;47.62;99900.06;5035144;28;20029;-62
2023/08/02 00:57:02;;;;;;;5.72;1.35;;;;;;;24.19;47.44;99898.53;5034823;28;20030;-62
2023/08/02 00:59:28;;;;;;;5.40;1.65;;;;;;;24.19;47.47;99895.78;5017591;28;20464;-63
2023/08/02 01:01:53;;;;;;;9.43;2.05;;;;;;;24.22;47.65;99900.78;5035177;28;20030;-63
2023/08/02 01:04:19;;;;;;;8.55;1.85;;;;;;;24.24;47.90;99896.72;5033332;28;20390;-62
2023/08/02 01:06:49;;;;;;;2.63;1.52;;;;;;;24.22;47.59;99885.19;5017061;28;20030;-62
2023/08/02 01:09:33;;;;;;;11.88;1.80;;;;;;;24.25;47.22;99890.19;5033124;28;20157;-63
2023/08/02 01:12:06;;;;;;;8.38;1.73;;;;;;;24.23;47.78;99891.50;5017235;28;20040;-62
2023/08/02 01:14:34;;;;;;;5.50;1.80;;;;;;;24.24;47.42;99882.22;5017041;28;20040;-62
2023/08/02 01:17:00;;;;;;;4.88;1.75;;;;;;;24.25;47.95;99875.66;5034826;28;20374;-62
2023/08/02 01:19:26;;;;;;;6.65;1.73;;;;;;;24.29;47.52;99874.09;5033619;28;20032;-63
2023/08/02 01:21:51;;;;;;;5.88;2.03;;;;;;;24.30;47.81;99864.81;5033564;28;20033;-63
2023/08/02 01:24:17;;;;;;;6.15;1.58;;;;;;;24.35;47.17;99870.41;5034938;28;20120;-62
2023/08/02 01:26:48;;;;;;;3.97;1.52;;;;;;;24.36;48.09;99868.50;5033913;28;20493;-63
2023/08/02 01:29:18;;;;;;;7.30;1.65;;;;;;;24.39;47.76;99868.84;5033685;28;20073;-63
2023/08/02 01:31:44;;;;;;;4.57;1.58;;;;;;;24.40;47.34;99858.75;5033405;28;20045;-63
2023/08/02 01:34:11;;;;;;;5.43;1.80;;;;;;;24.39;47.65;99854.31;5033090;28;20033;-62
2023/08/02 01:36:36;;;;;;;7.70;1.95;;;;;;;24.40;47.33;99854.06;5032953;28;20037;-63
2023/08/02 01:39:02;;;;;;;4.15;1.27;;;;;;;24.40;47.50;99847.78;5032969;28;20068;-62
2023/08/02 01:41:28;;;;;;;6.25;1.55;;;;;;;24.43;48.07;99848.09;5016316;28;20037;-62
2023/08/02 01:43:53;;;;;;;6.57;1.38;;;;;;;24.42;47.66;99841.00;5016514;28;20037;-62
2023/08/02 01:46:19;;;;;;;4.53;1.40;;;;;;;24.41;47.78;99833.84;5034105;28;20038;-62
2023/08/02 01:48:44;;;;;;;5.93;1.63;;;;;;;24.43;47.83;99845.38;5032795;28;20116;-62
2023/08/02 01:51:10;;;;;;;4.72;1.50;;;;;;;24.43;48.22;99847.31;5033799;28;20025;-63
2023/08/02 01:53:35;;;;;;;5.07;1.25;;;;;;;24.36;47.82;99836.47;5033949;28;20037;-63
2023/08/02 01:56:00;;;;;;;2.47;1.25;;;;;;;24.30;48.52;99823.75;5034006;28;20029;-62
2023/08/02 01:58:26;;;;;;;4.65;1.90;;;;;;;24.23;48.73;99820.34;5032326;28;20473;-63
2023/08/02 02:00:51;;;;;;;2.97;1.27;;;;;;;24.14;48.35;99810.84;5032409;28;20038;-63
2023/08/02 02:03:17;;;;;;;3.65;1.60;;;;;;;24.06;48.52;99792.88;5033550;28;20099;-66
2023/08/02 02:05:51;;;;;;;4.10;1.30;;;;;;;24.03;49.54;99784.31;5032382;28;20379;-66
2023/08/02 02:08:17;;;;;;;4.68;1.50;;;;;;;24.01;49.20;99779.06;5015382;28;20072;-66
2023/08/02 02:10:52;;;;;;;2.78;1.63;;;;;;;24.02;49.41;99786.22;5015845;28;20505;-65
2023/08/02 02:13:19;;;;;;;4.40;1.10;;;;;;;24.02;49.35;99763.47;5033446;28;20108;-67
2023/08/02 02:15:45;;;;;;;13.75;2.05;;;;;;;24.07;49.70;99771.78;5015746;28;20128;-66
2023/08/02 02:18:10;;;;;;;15.48;2.15;;;;;;;24.11;49.29;99762.06;5032235;28;20053;-66
2023/08/02 02:20:36;;;;;;;7.22;1.73;;;;;;;24.12;49.69;99750.84;5033460;28;20029;-66
2023/08/02 02:23:02;;;;;;;7.28;2.38;;;;;;;24.16;49.27;99749.31;5032128;28;20083;-67
2023/08/02 02:25:27;;;;;;;3.65;1.40;;;;;;;24.20;49.37;99757.88;5032212;28;20037;-67
2023/08/02 02:27:52;;;;;;;4.28;2.33;;;;;;;24.21;49.24;99752.13;5033264;28;20379;-68
2023/08/02 02:30:18;;;;;;;5.25;2.45;;;;;;;24.22;49.29;99742.88;5033470;28;20445;-67
2023/08/02 02:32:43;;;;;;;5.43;1.60;;;;;;;24.23;49.27;99743.69;5015505;28;20040;-67
2023/08/02 02:35:12;;;;;;;3.75;1.52;;;;;;;24.23;49.41;99727.28;5033221;28;20057;-66
2023/08/02 02:37:38;;;;;;;6.90;1.67;;;;;;;24.21;48.93;99712.97;5032148;28;20448;-67
2023/08/02 02:40:04;;;;;;;4.75;1.83;;;;;;;24.22;49.35;99714.66;5032437;28;20509;-66
2023/08/02 02:42:30;;;;;;;5.53;1.45;;;;;;;24.19;49.54;99693.25;5033641;28;20029;-67
2023/08/02 02:44:55;;;;;;;2.33;1.40;;;;;;;24.17;49.47;99689.94;5032102;28;20083;-66
2023/08/02 02:47:21;;;;;;;5.38;1.40;;;;;;;24.13;49.81;99694.22;5031868;28;20055;-67
2023/08/02 02:49:46;;;;;;;4.05;1.52;;;;;;;24.11;49.17;99686.28;5032259;28;20501;-67
2023/08/02 02:52:11;;;;;;;2.20;1.08;;;;;;;24.08;49.23;99683.16;5033384;28;20052;-67
2023/08/02 02:54:37;;;;;;;4.97;1.02;;;;;;;24.06;49.74;99688.06;5033249;28;20083;-67
2023/08/02 02:57:03;;;;;;;5.50;2.00;;;;;;;24.06;49.18;99688.88;5033211;28;20037;-67
2023/08/02 02:59:28;;;;;;;9.05;1.20;;;;;;;24.05;49.63;99683.63;5033421;28;20033;-67
2023/08/02 03:01:54;;;;;;;3.42;1.25;;;;;;;24.06;49.31;99696.25;5031901;28;20041;-67
2023/08/02 03:04:19;;;;;;;5.07;1.20;;;;;;;24.04;49.45;99701.97;5031617;28;20579;-67
2023/08/02 03:06:44;;;;;;;2.42;0.80;;;;;;;24.06;49.45;99696.25;5015496;28;20033;-67
2023/08/02 03:09:10;;;;;;;3.78;1.17;;;;;;;24.05;49.70;99703.63;5031746;28;20030;-67
2023/08/02 03:11:36;;;;;;;3.10;0.95;;;;;;;24.09;49.45;99701.25;5032740;28;20033;-62
2023/08/02 03:14:01;;;;;;;2.67;0.75;;;;;;;24.10;49.50;99689.22;5032888;28;20025;-67
2023/08/02 03:16:27;;;;;;;2.55;1.45;;;;;;;24.07;49.52;99679.56;5032080;28;20053;-68
2023/08/02 03:18:54;;;;;;;4.78;2.42;;;;;;;24.09;49.47;99676.63;5033543;28;20041;-66
2023/08/02 03:21:20;;;;;;;1.88;1.20;;;;;;;24.06;49.77;99656.03;5003342;28;20052;-66
2023/08/02 03:23:45;;;;;;;4.47;1.40;;;;;;;24.05;49.97;99626.19;5035715;28;20505;-66
2023/08/02 03:26:11;;;;;;;7.75;1.98;;;;;;;24.03;49.63;99611.91;5036676;28;20041;-68
2023/08/02 03:28:36;;;;;;;2.55;1.35;;;;;;;24.04;49.73;99608.09;5035521;28;20412;-66
2023/08/02 03:31:01;;;;;;;5.00;1.52;;;;;;;24.01;49.50;99597.66;5036522;28;20029;-66
2023/08/02 03:33:27;;;;;;;1.92;1.35;;;;;;;24.00;49.78;99585.88;5036604;28;20022;-66
2023/08/02 03:35:53;;;;;;;3.78;2.58;;;;;;;23.99;49.58;99583.38;5036601;28;20112;-66
2023/08/02 03:38:18;;;;;;;1.50;1.13;;;;;;;23.95;50.34;99594.00;5035099;28;20029;-66
2023/08/02 03:40:44;;;;;;;5.03;1.27;;;;;;;23.93;49.91;99617.19;5035223;28;20060;-66
2023/08/02 03:43:09;;;;;;;4.10;1.33;;;;;;;23.92;50.13;99623.75;5036283;28;20100;-66
2023/08/02 03:45:35;;;;;;;2.70;1.67;;;;;;;23.88;50.00;99614.34;5018566;28;20401;-66
2023/08/02 03:48:00;;;;;;;8.98;2.47;;;;;;;23.90;50.19;99623.19;5018395;28;20068;-66
2023/08/02 03:50:27;;;;;;;7.03;1.40;;;;;;;23.93;50.37;99611.72;5034968;28;20033;-66
2023/08/02 03:52:52;;;;;;;2.15;1.33;;;;;;;23.95;50.35;99615.91;5036167;28;20035;-67
2023/08/02 03:55:17;;;;;;;2.47;1.55;;;;;;;23.96;50.38;99600.28;5034846;28;20112;-66
2023/08/02 03:57:43;;;;;;;3.47;1.55;;;;;;;23.94;50.29;99595.06;5034714;28;20467;-66
2023/08/02 04:00:09;;;;;;;2.40;1.30;;;;;;;23.98;49.83;99598.97;5035897;28;20117;-66
2023/08/02 04:02:34;;;;;;;3.28;1.10;;;;;;;23.97;50.19;99591.84;5036095;28;20060;-66
2023/08/02 04:05:00;;;;;;;3.38;1.45;;;;;;;23.97;49.67;99593.75;5017512;28;20053;-66
2023/08/02 04:07:25;;;;;;;3.15;1.60;;;;;;;23.94;50.35;99580.56;5036093;28;20033;-66
2023/08/02 04:09:51;;;;;;;2.83;1.20;;;;;;;23.94;50.24;99562.25;5035695;28;20389;-66
2023/08/02 04:12:17;;;;;;;4.68;1.40;;;;;;;23.93;50.09;99551.53;5035730;28;20155;-66
2023/08/02 04:14:43;;;;;;;2.55;1.27;;;;;;;23.92;50.26;99560.84;5036058;28;20072;-66
2023/08/02 04:17:09;;;;;;;5.45;1.35;;;;;;;23.88;50.37;99540.50;5034265;28;20057;-66
2023/08/02 04:19:34;;;;;;;1.88;1.27;;;;;;;23.86;50.63;99523.50;5035826;28;20164;-66
2023/08/02 04:21:59;;;;;;;1.88;1.00;;;;;;;23.83;50.68;99524.84;5034732;28;20025;-66
2023/08/02 04:24:25;;;;;;;5.30;1.42;;;;;;;23.82;50.31;99505.94;5035726;28;20026;-66
2023/08/02 04:26:50;;;;;;;3.55;1.38;;;;;;;23.86;50.72;99507.09;5035704;28;20118;-66
2023/08/02 04:29:16;;;;;;;2.40;1.40;;;;;;;23.80;50.42;99489.78;5034381;28;20025;-66
2023/08/02 04:31:41;;;;;;;4.53;1.58;;;;;;;23.77;50.90;99485.63;5017074;28;20017;-65
2023/08/02 04:34:06;;;;;;;3.28;1.50;;;;;;;23.72;50.45;99480.09;5035230;28;20101;-65
2023/08/02 04:36:32;;;;;;;2.90;1.77;;;;;;;23.68;50.49;99478.06;5035332;28;20527;-65
2023/08/02 04:38:57;;;;;;;2.85;1.75;;;;;;;23.61;50.81;99486.44;5026758;28;20021;-65
2023/08/02 04:41:22;;;;;;;2.90;1.30;;;;;;;23.54;51.28;99499.44;5034244;28;20116;-65
2023/08/02 04:43:48;;;;;;;3.70;1.90;;;;;;;23.48;50.92;99494.94;5035134;28;20104;-65
2023/08/02 04:46:14;;;;;;;3.70;1.60;;;;;;;23.45;51.12;99487.22;5033815;28;20080;-66
2023/08/02 04:48:39;;;;;;;5.00;1.42;;;;;;;23.43;51.06;99462.06;5017338;28;20053;-67
2023/08/02 04:51:08;;;;;;;3.05;1.13;;;;;;;23.38;51.71;99445.56;5033707;28;20014;-68
2023/08/02 04:53:34;;;;;;;2.08;1.50;;;;;;;23.34;51.46;99444.34;5035072;28;20473;-68
2023/08/02 04:55:59;;;;;;;2.65;1.40;;;;;;;23.30;51.88;99440.47;5035168;28;20057;-69
2023/08/02 04:58:25;;;;;;;2.72;1.35;;;;;;;23.23;51.85;99431.56;5017279;28;20116;-69
2023/08/02 05:00:50;;;;;;;2.50;1.20;;;;;;;23.15;52.08;99418.31;5033982;28;20018;-69
2023/08/02 05:03:15;;;;;;;4.90;2.03;;;;;;;23.08;52.56;99412.19;5033764;28;20056;-69
2023/08/02 05:05:41;;;;;;;4.38;1.30;;;;;;;23.05;52.61;99418.13;5037909;28;20018;-68
2023/08/02 05:08:06;;;;;;;5.80;1.60;;;;;;;23.00;52.43;99409.84;5032999;28;20116;-69
2023/08/02 05:10:31;;;;;;;7.68;1.52;;;;;;;22.96;52.09;99404.03;5017576;28;20025;-69
2023/08/02 05:12:57;;;;;;;1.48;1.08;;;;;;;22.89;52.45;99392.41;5017342;28;20116;-69
2023/08/02 05:15:22;;;;;;;3.03;1.45;;;;;;;22.89;53.21;99391.63;5034996;28;20079;-70
2023/08/02 05:17:48;;;;;;;2.38;1.30;;;;;;;22.84;52.37;99389.59;5017315;28;20029;-71
2023/08/02 05:20:13;;;;;;;3.83;1.55;;;;;;;22.79;53.44;99386.78;5034870;28;20071;-72
2023/08/02 05:22:39;;;;;;;2.40;1.42;;;;;;;22.73;52.96;99375.97;5036480;28;20043;-71
2023/08/02 05:25:05;;;;;;;7.72;1.77;;;;;;;22.72;53.08;99369.72;5025790;28;20049;-70
2023/08/02 05:27:30;;;;;;;3.42;1.30;;;;;;;22.69;53.12;99359.28;5025789;28;20037;-71
2023/08/02 05:29:56;;;;;;;2.63;1.42;;;;;;;22.74;53.21;99364.00;5043422;28;20036;-71
2023/08/02 05:32:22;;;;;;;5.50;1.25;;;;;;;22.71;53.58;99359.03;5042602;28;20469;-69
2023/08/02 05:34:47;;;;;;;5.78;2.20;;;;;;;22.70;53.58;99357.38;5027245;28;20048;-65
2023/08/02 05:37:13;;;;;;;2.83;1.50;;;;;;;22.72;53.55;99347.88;5047208;28;20025;-70
2023/08/02 05:39:38;;;;;;;3.65;1.77;;;;;;;22.72;53.45;99339.69;5033173;28;20102;-69
2023/08/02 05:42:04;;;;;;;4.05;1.88;;;;;;;22.70;54.24;99330.09;5016155;28;20079;-69
2023/08/02 05:44:29;;;;;;;2.97;1.75;;;;;;;22.68;53.82;99316.66;5015744;28;20044;-68
2023/08/02 05:46:55;;;;;;;3.92;1.38;;;;;;;22.69;53.55;99315.59;5033035;28;20060;-69
2023/08/02 05:49:20;;;;;;;3.88;2.03;;;;;;;22.65;54.50;99299.94;5034273;28;20037;-70
2023/08/02 05:51:45;;;;;;;5.03;1.75;;;;;;;22.65;53.58;99291.75;5034017;28;20099;-71
2023/08/02 05:54:11;;;;;;;5.15;1.50;;;;;;;22.60;54.52;99290.56;5034121;28;20033;-71
2023/08/02 05:56:36;;;;;;;2.88;1.58;;;;;;;22.59;54.76;99286.16;5034006;28;20485;-69
2023/08/02 05:59:02;;;;;;;2.75;1.30;;;;;;;22.57;54.24;99280.13;5032623;28;20038;-69
2023/08/02 06:01:27;;;;;;;2.55;1.60;;;;;;;22.58;54.01;99273.56;5032708;28;20025;-69
2023/08/02 06:03:52;;;;;;;4.43;1.58;;;;;;;22.59;54.84;99269.78;5033312;28;20044;-69
2023/08/02 06:06:18;;;;;;;9.65;1.83;;;;;;;22.57;54.49;99271.09;5035274;28;20026;-69
2023/08/02 06:08:45;;;;;;;2.17;1.25;;;;;;;22.58;54.57;99259.94;5033975;28;20034;-69
2023/08/02 06:11:12;;;;;;;1.40;1.20;;;;;;;22.60;55.14;99248.78;5032712;28;20041;-69
2023/08/02 06:13:37;;;;;;;3.45;1.15;;;;;;;22.58;54.71;99238.09;5032372;28;20469;-70
2023/08/02 06:16:03;;;;;;;1.73;0.88;;;;;;;22.60;54.45;99230.50;5033385;28;20489;-69
2023/08/02 06:18:28;;;;;;;3.35;1.30;;;;;;;22.65;55.13;99231.69;5015988;28;20029;-68
2023/08/02 06:20:54;;;;;;;7.10;1.02;;;;;;;22.67;54.50;99224.09;5033532;28;20045;-69
2023/08/02 06:23:19;;;;;;;2.35;1.30;;;;;;;22.71;54.92;99209.69;5031996;28;20120;-69
2023/08/02 06:25:44;;;;;;;1.98;1.33;;;;;;;22.74;54.73;99214.66;5032097;28;20083;-69
2023/08/02 06:28:10;;;;;;;2.17;1.35;;;;;;;22.82;54.15;99197.03;5032224;28;20053;-69
2023/08/02 06:30:35;;;;;;;4.85;1.23;;;;;;;22.86;54.95;99199.03;5032160;28;20088;-67
2023/08/02 06:33:00;;;;;;;2.40;1.30;;;;;;;22.92;54.38;99197.22;5031783;28;20036;-68
2023/08/02 06:35:26;;;;;;;3.22;0.98;;;;;;;22.98;55.15;99188.00;5032075;28;20041;-68
2023/08/02 06:37:51;;;;;;;2.35;1.20;;;;;;;23.02;54.82;99178.25;5033193;28;20140;-68
2023/08/02 06:40:17;;;;;;;2.80;1.00;;;;;;;23.04;54.59;99176.91;5031851;28;20040;-68
2023/08/02 06:42:42;;;;;;;2.45;1.23;;;;;;;23.09;54.90;99173.41;5032048;28;20025;-68
2023/08/02 06:45:08;;;;;;;2.05;1.25;;;;;;;23.11;54.95;99166.66;5015222;28;20037;-69
2023/08/02 06:47:33;;;;;;;1.38;1.20;;;;;;;23.14;54.29;99146.19;5031839;28;20092;-69
2023/08/02 06:49:58;;;;;;;2.45;0.98;;;;;;;23.18;54.80;99139.13;5032925;28;20489;-70
2023/08/02 06:52:24;;;;;;;3.58;1.25;;;;;;;23.27;54.35;99131.31;5031690;28;20025;-70
2023/08/02 06:54:55;;;;;;;1.73;1.42;;;;;;;23.33;54.50;99122.97;5014914;28;20091;-68
2023/08/02 06:57:22;;;;;;;2.00;1.00;;;;;;;23.43;54.74;99112.19;5015607;28;20039;-69
2023/08/02 06:59:49;;;;;;;3.75;0.77;;;;;;;23.49;54.36;99119.38;5031839;28;20032;-69
2023/08/02 07:02:15;;;;;;;1.48;0.70;;;;;;;23.58;54.45;99104.16;5048341;28;20120;-69
2023/08/02 07:04:41;;;;;;;2.97;0.60;;;;;;;23.80;54.28;99106.03;5031019;28;20096;-68
2023/08/02 07:07:07;;;;;;;2.40;0.75;;;;;;;23.82;54.46;99101.97;5031185;28;20041;-69
2023/08/02 07:09:32;;;;;;;0.52;0.52;;;;;;;23.82;53.81;99101.97;5031315;28;20030;-69
2023/08/02 07:11:59;;;;;;;0.93;0.60;;;;;;;23.87;55.05;99095.75;5031410;28;20057;-70
2023/08/02 07:14:24;;;;;;;0.85;0.40;;;;;;;23.90;54.85;99087.81;5032788;28;20048;-69
2023/08/02 07:16:49;;;;;;;0.65;0.40;;;;;;;23.94;54.86;99088.13;5031361;28;20108;-67
2023/08/02 07:19:15;;;;;;;1.75;0.43;;;;;;;23.98;54.35;99081.09;5031432;28;20037;-68
2023/08/02 07:21:40;;;;;;;0.30;0.20;;;;;;;24.11;54.36;99069.72;5032521;28;20511;-68
2023/08/02 07:24:05;;;;;;;0.57;0.22;;;;;;;24.09;54.08;99071.88;5031130;28;20044;-67
2023/08/02 07:26:31;;;;;;;0.47;0.30;;;;;;;24.07;54.98;99065.81;5032544;28;20525;-68
2023/08/02 07:28:56;;;;;;;0.20;0.20;;;;;;;24.09;55.09;99064.50;5031350;28;20045;-68
2023/08/02 07:31:21;;;;;;;0.20;0.17;;;;;;;24.10;54.97;99059.88;5047830;28;20042;-68
2023/08/02 07:33:47;;;;;;;0.40;0.10;;;;;;;24.21;54.84;99061.59;5032361;28;20099;-66
2023/08/02 07:36:18;;;;;;;0.38;0.35;;;;;;;24.31;54.74;99056.22;5031400;28;20048;-67
2023/08/02 07:38:44;;;;;;;0.10;0.10;;;;;;;24.50;54.28;99052.00;5031281;28;20497;-67
2023/08/02 07:41:09;;;;;;;0.10;0.10;;;;;;;24.56;54.57;99048.22;5031143;28;20044;-67
2023/08/02 07:43:35;;;;;;;2.28;0.38;;;;;;;24.59;54.51;99042.22;5014636;28;20042;-67
2023/08/02 07:46:00;;;;;;;0.50;0.28;;;;;;;24.67;54.58;99038.97;5032287;28;20116;-67
2023/08/02 07:48:26;;;;;;;0.70;0.30;;;;;;;24.71;54.66;99041.97;5032346;28;20037;-68
2023/08/02 07:50:51;;;;;;;0.32;0.20;;;;;;;24.74;54.59;99039.53;5031180;28;20113;-68
2023/08/02 07:53:16;;;;;;;0.20;0.20;;;;;;;24.78;54.46;99027.00;5031157;28;20405;-68
2023/08/02 07:55:42;;;;;;;0.10;0.10;;;;;;;24.83;54.32;99032.53;5032372;28;20037;-66
2023/08/02 07:58:07;;;;;;;0.20;0.10;;;;;;;24.89;54.23;99034.19;5047745;28;20037;-67
2023/08/02 08:00:33;;;;;;;0.57;0.38;;;;;;;24.95;54.12;99036.97;5031143;28;20464;-67
2023/08/02 08:02:58;;;;;;;0.65;0.08;;;;;;;24.97;54.18;99034.78;5030859;28;20040;-67
2023/08/02 08:05:25;;;;;;;0.30;0.10;;;;;;;25.06;53.57;99024.97;5030765;28;20501;-67
2023/08/02 08:07:51;;;;;;;0.52;0.10;;;;;;;25.17;54.08;99024.75;5034561;28;20033;-66
2023/08/02 08:10:16;;;;;;;0.13;0.10;;;;;;;25.25;54.53;99017.91;5035973;28;20037;-65
2023/08/02 08:12:41;;;;;;;0.00;0.00;;;;;;;25.34;54.35;99010.81;5036326;28;20033;-65
2023/08/02 08:15:07;;;;;;;2.13;0.00;;;;;;;25.45;53.85;99012.50;5034609;28;20497;-65
2023/08/02 08:17:33;;;;;;;0.25;0.17;;;;;;;25.56;53.36;99021.59;5034515;28;20121;-66
2023/08/02 08:19:58;;;;;;;0.43;0.00;;;;;;;25.68;53.84;99001.06;5034345;28;20099;-66
2023/08/02 08:22:28;;;;;;;0.00;0.00;;;;;;;25.82;53.58;99013.16;5034185;28;20497;-66
2023/08/02 08:24:57;;;;;;;0.00;0.00;;;;;;;25.85;53.78;99014.53;5050970;28;20049;-66
2023/08/02 08:27:22;;;;;;;0.28;0.08;;;;;;;25.79;53.22;98999.97;5017904;28;20459;-68
2023/08/02 08:29:47;;;;;;;0.10;0.10;;;;;;;25.87;53.41;99004.09;5034299;28;20029;-66
2023/08/02 08:32:13;;;;;;;0.73;0.10;;;;;;;25.94;53.14;98996.41;5034498;28;20044;-66
2023/08/02 08:34:38;;;;;;;0.30;0.00;;;;;;;26.01;53.14;98989.56;5034183;28;20033;-66
2023/08/02 08:37:03;;;;;;;0.77;0.10;;;;;;;26.13;53.02;98989.25;5034153;28;20034;-66
2023/08/02 08:39:29;;;;;;;1.75;0.68;;;;;;;26.19;53.23;98985.47;5034049;28;20045;-66
2023/08/02 08:41:56;;;;;;;1.42;0.30;;;;;;;26.30;52.93;98972.56;5033644;28;20037;-66
2023/08/02 08:44:22;;;;;;;0.10;0.10;;;;;;;26.52;52.65;98978.56;5017401;28;20565;-67
2023/08/02 08:46:47;;;;;;;0.73;0.20;;;;;;;26.87;51.77;98955.66;5033974;28;20129;-66
2023/08/02 08:49:12;;;;;;;1.08;0.30;;;;;;;27.04;52.58;98959.72;5033474;28;20382;-66
2023/08/02 08:51:42;;;;;;;0.20;0.20;;;;;;;27.25;51.77;98954.13;5034034;28;20061;-69
2023/08/02 08:54:14;;;;;;;0.38;0.20;;;;;;;27.23;52.14;98945.31;5034048;28;20030;-67
2023/08/02 08:56:40;;;;;;;0.70;0.30;;;;;;;27.55;51.20;98927.28;5035084;28;20033;-67
2023/08/02 08:59:07;;;;;;;0.60;0.22;;;;;;;28.01;51.20;98951.66;5033793;28;20049;-67
2023/08/02 09:01:32;;;;;;;0.30;0.10;;;;;;;28.00;51.59;98950.84;5033781;28;20040;-67
2023/08/02 09:03:58;;;;;;;3.17;0.20;;;;;;;28.27;50.78;98953.94;5033510;28;20054;-67
2023/08/02 09:06:23;;;;;;;0.35;0.25;;;;;;;28.72;50.08;98943.56;5034643;28;20068;-67
2023/08/02 09:08:49;;;;;;;0.28;0.25;;;;;;;28.81;50.52;98931.59;5016994;28;20034;-68
2023/08/02 09:11:17;;;;;;;0.32;0.10;;;;;;;28.70;50.91;98932.03;5034607;28;20108;-68
2023/08/02 09:13:42;;;;;;;0.43;0.10;;;;;;;28.58;50.42;98940.69;5034755;28;20049;-67
2023/08/02 09:16:11;;;;;;;2.30;0.10;;;;;;;28.47;51.01;98938.31;5016971;28;20405;-67
2023/08/02 09:18:39;;;;;;;0.10;0.00;;;;;;;28.28;51.20;98924.47;5016678;28;20033;-67
2023/08/02 09:21:06;;;;;;;0.50;0.10;;;;;;;28.16;50.35;98922.09;5016803;28;20041;-68
2023/08/02 09:23:32;;;;;;;0.00;0.00;;;;;;;28.07;51.35;98915.59;5016646;28;20033;-67
2023/08/02 09:26:19;;;;;;;0.10;0.00;;;;;;;28.06;51.36;98930.44;5033145;28;20500;-67
2023/08/02 09:29:05;;;;;;;1.10;0.17;;;;;;;28.25;50.78;98900.28;5033183;28;20034;-68
2023/08/02 09:31:35;;;;;;;7.70;0.63;;;;;;;28.73;50.03;98890.06;5049378;28;20084;-67
2023/08/02 09:34:01;;;;;;;0.65;0.10;;;;;;;28.71;50.16;98884.03;5033092;28;20037;-66
2023/08/02 09:36:28;;;;;;;0.20;0.00;;;;;;;28.81;50.15;98886.69;5034132;28;20176;-67
2023/08/02 09:39:06;;;;;;;1.60;0.20;;;;;;;29.09;49.79;98885.72;5032975;28;20112;-67
2023/08/02 09:41:32;;;;;;;0.00;0.00;;;;;;;29.64;49.00;98866.72;5016767;28;20044;-68
2023/08/02 09:43:58;;;;;;;0.35;0.30;;;;;;;29.75;48.87;98866.25;5033950;28;20069;-68
2023/08/02 09:46:26;;;;;;;0.60;0.10;;;;;;;29.89;49.30;98874.59;5032624;28;20041;-68
2023/08/02 09:48:52;;;;;;;0.77;0.03;;;;;;;30.08;48.87;98858.78;5016318;28;20025;-68
2023/08/02 09:51:17;;;;;;;0.00;0.00;;;;;;;30.44;48.30;98862.50;5034360;28;20109;-67
2023/08/02 09:53:53;;;;;;;1.15;0.10;;;;;;;31.15;47.36;98849.94;5032897;28;20520;-68
2023/08/02 09:56:24;;;;;;;0.00;0.00;;;;;;;31.70;46.61;98858.88;5033963;28;20575;-68
2023/08/02 09:58:53;;;;;;;0.22;0.05;;;;;;;32.41;46.32;98854.22;5032621;28;20029;-68
2023/08/02 10:01:18;;;;;;;1.67;0.98;;;;;;;33.27;44.65;98847.78;5032624;28;20517;-68
2023/08/02 10:03:44;;;;;;;1.30;1.30;;;;;;;34.22;44.02;98830.97;5032357;28;20107;-68
2023/08/02 10:06:11;;;;;;;1.67;0.57;;;;;;;35.35;42.05;98836.38;5032616;28;20040;-68
2023/08/02 10:08:39;;;;;;;0.10;0.10;;;;;;;35.72;41.43;98829.00;5032568;28;20029;-68
2023/08/02 10:11:05;;;;;;;0.10;0.10;;;;;;;35.42;42.34;98830.25;5032602;28;20045;-68
2023/08/02 10:13:33;;;;;;;0.70;0.00;;;;;;;34.91;41.75;98811.97;5032554;28;20025;-68
2023/08/02 10:15:58;;;;;;;0.10;0.10;;;;;;;35.07;42.20;98808.25;5015944;28;20021;-68
2023/08/02 10:18:24;;;;;;;1.38;0.17;;;;;;;34.97;41.60;98808.63;5015808;28;20044;-67
2023/08/02 10:20:50;;;;;;;1.48;0.20;;;;;;;34.26;42.41;98804.13;5032533;28;20053;-68
2023/08/02 10:23:15;;;;;;;0.30;0.00;;;;;;;33.98;43.36;98812.06;5032189;28;20065;-68
2023/08/02 10:25:41;;;;;;;0.10;0.10;;;;;;;33.77;43.00;98808.38;5032252;28;20037;-68
2023/08/02 10:28:07;;;;;;;0.20;0.20;;;;;;;33.32;43.42;98807.91;5015698;28;20029;-68
2023/08/02 10:30:33;;;;;;;1.85;0.10;;;;;;;33.07;43.64;98805.97;5031829;28;20450;-68
2023/08/02 10:33:14;;;;;;;0.28;0.10;;;;;;;32.90;43.64;98797.59;5032226;28;20434;-67
2023/08/02 10:35:58;;;;;;;0.10;0.10;;;;;;;32.77;44.17;98800.22;5033607;28;20037;-68
2023/08/02 10:38:38;;;;;;;0.08;0.08;;;;;;;32.58;43.05;98799.66;5033502;28;20033;-67
2023/08/02 10:41:07;;;;;;;0.10;0.10;;;;;;;32.30;44.26;98797.44;5034267;28;20448;-67
2023/08/02 10:43:33;;;;;;;0.30;0.10;;;;;;;31.92;44.11;98810.94;5016150;28;20099;-65
2023/08/02 10:46:19;;;;;;;0.00;0.00;;;;;;;31.42;45.26;98811.09;5032192;28;20436;-66
2023/08/02 10:48:44;;;;;;;0.10;0.10;;;;;;;30.90;46.00;98806.25;5031878;28;20045;-65
2023/08/02 10:51:32;;;;;;;2.20;0.52;;;;;;;30.54;46.59;98790.41;5032697;28;20567;-66
2023/08/02 10:54:21;;;;;;;2.35;0.17;;;;;;;30.29;46.93;98777.13;5016132;28;20101;-67
2023/08/02 10:56:53;;;;;;;1.65;0.30;;;;;;;30.05;47.21;98790.31;5033250;28;20032;-66
2023/08/02 10:59:24;;;;;;;1.47;0.30;;;;;;;29.80;47.72;98777.81;5048543;28;20029;-67
2023/08/02 11:01:54;;;;;;;0.93;0.23;;;;;;;29.67;47.86;98769.50;5048470;28;20096;-67
2023/08/02 11:04:19;;;;;;;1.45;0.00;;;;;;;29.52;48.21;98758.72;5031897;28;20049;-67
2023/08/02 11:06:44;;;;;;;1.20;0.13;;;;;;;29.45;48.03;98761.88;5048748;28;20041;-67
2023/08/02 11:09:13;;;;;;;0.80;0.20;;;;;;;29.40;48.15;98759.19;5032028;28;20076;-67
2023/08/02 11:11:39;;;;;;;0.10;0.10;;;;;;;29.26;48.78;98759.16;5033393;28;20030;-66
2023/08/02 11:14:04;;;;;;;0.10;0.10;;;;;;;29.12;48.54;98733.44;5033414;28;20029;-66
2023/08/02 11:16:30;;;;;;;0.30;0.15;;;;;;;29.00;48.89;98727.59;5033362;28;20029;-65
2023/08/02 11:18:56;;;;;;;0.20;0.20;;;;;;;28.85;49.39;98719.56;5015185;28;20036;-66
2023/08/02 11:21:21;;;;;;;0.98;0.20;;;;;;;28.74;49.81;98715.31;5031654;28;20429;-65
2023/08/02 11:23:49;;;;;;;2.00;0.22;;;;;;;28.58;49.59;98714.72;5031478;28;20493;-67
2023/08/02 11:26:19;;;;;;;0.30;0.20;;;;;;;28.45;49.57;98714.63;5033104;28;20068;-68
2023/08/02 11:28:48;;;;;;;0.47;0.20;;;;;;;28.28;50.58;98715.94;5032104;28;20531;-67
2023/08/02 11:31:13;;;;;;;1.98;0.30;;;;;;;28.13;50.68;98705.16;5015163;28;20041;-71